createdAt,value
2022-09-12T00:00:00.699Z,14.4
2022-09-12T00:03:00.723Z,14.4
2022-09-12T00:06:00.708Z,14.1
2022-09-12T00:09:00.716Z,14.1
2022-09-12T00:12:00.691Z,14.1
2022-09-12T00:15:00.684Z,14.1
2022-09-12T00:18:00.680Z,14.1
2022-09-12T00:21:00.715Z,14.1
2022-09-12T00:24:00.674Z,14.1
2022-09-12T00:27:00.748Z,14.1
2022-09-12T00:30:00.705Z,13.7
2022-09-12T00:33:00.721Z,13.7
2022-09-12T00:36:00.686Z,13.7
2022-09-12T00:39:00.681Z,13.7
2022-09-12T00:42:00.687Z,13.7
2022-09-12T00:45:00.694Z,13.5
2022-09-12T00:48:00.709Z,13.5
2022-09-12T00:51:00.709Z,13.5
2022-09-12T00:54:00.724Z,13.5
2022-09-12T00:57:00.752Z,13.5
2022-09-12T01:00:00.732Z,13.5
2022-09-12T01:03:00.693Z,13.5
2022-09-12T01:06:00.709Z,13.5
2022-09-12T01:09:00.717Z,13.5
2022-09-12T01:12:00.691Z,13.1
2022-09-12T01:15:00.699Z,13.1
2022-09-12T01:18:00.688Z,13.1
2022-09-12T01:21:00.688Z,13.1
2022-09-12T01:24:00.715Z,12.9
2022-09-12T01:27:00.712Z,12.9
2022-09-12T01:30:00.699Z,12.9
2022-09-12T01:33:00.747Z,12.9
2022-09-12T01:36:00.702Z,12.9
2022-09-12T01:39:00.711Z,12.9
2022-09-12T01:42:00.691Z,12.9
2022-09-12T01:45:00.689Z,12.9
2022-09-12T01:48:00.705Z,12.9
2022-09-12T01:51:00.683Z,12.6
2022-09-12T01:54:00.710Z,12.6
2022-09-12T01:57:00.652Z,12.6
2022-09-12T02:00:00.709Z,12.6
2022-09-12T02:03:00.702Z,12.6
2022-09-12T02:06:00.745Z,12.6
2022-09-12T02:09:00.708Z,12.6
2022-09-12T02:12:00.721Z,12.6
2022-09-12T02:15:00.724Z,12.6
2022-09-12T02:18:00.746Z,12.6
2022-09-12T02:21:00.696Z,12.4
2022-09-12T02:24:00.703Z,12.4
2022-09-12T02:27:00.666Z,12.4
2022-09-12T02:30:00.726Z,12.4
2022-09-12T02:33:00.712Z,12.4
2022-09-12T02:36:00.751Z,12.4
2022-09-12T02:39:00.717Z,12.4
2022-09-12T02:42:00.694Z,12.4
2022-09-12T02:45:00.725Z,12.4
2022-09-12T02:48:00.724Z,12.1
2022-09-12T02:51:00.704Z,12.1
2022-09-12T02:54:00.706Z,12.1
2022-09-12T02:57:00.723Z,12.1
2022-09-12T03:00:00.776Z,12.1
2022-09-12T03:03:00.680Z,12.1
2022-09-12T03:06:00.693Z,12.1
2022-09-12T03:09:00.734Z,12.1
2022-09-12T03:12:00.806Z,11.9
2022-09-12T03:15:00.679Z,11.9
2022-09-12T03:18:00.692Z,11.9
2022-09-12T03:21:00.731Z,11.9
2022-09-12T03:24:00.758Z,11.9
2022-09-12T03:27:00.680Z,11.9
2022-09-12T03:30:00.716Z,11.9
2022-09-12T03:33:00.695Z,11.9
2022-09-12T03:36:00.709Z,11.9
2022-09-12T03:39:00.709Z,11.6
2022-09-12T03:42:00.704Z,11.6
2022-09-12T03:45:00.700Z,11.6
2022-09-12T03:48:00.710Z,11.6
2022-09-12T03:51:00.659Z,11.6
2022-09-12T03:54:00.736Z,11.6
2022-09-12T03:57:00.688Z,11.6
2022-09-12T04:00:00.777Z,11.6
2022-09-12T04:03:00.658Z,11.6
2022-09-12T04:06:00.702Z,11.6
2022-09-12T04:09:00.725Z,11.4
2022-09-12T04:12:00.732Z,11.4
2022-09-12T04:15:00.717Z,11.4
2022-09-12T04:18:06.182Z,11.4
2022-09-12T04:21:00.685Z,11.4
2022-09-12T04:24:00.728Z,11.4
2022-09-12T04:27:06.011Z,11.4
2022-09-12T04:30:00.710Z,11.4
2022-09-12T04:33:06.157Z,11.4
2022-09-12T04:36:00.729Z,11.4
2022-09-12T04:39:00.737Z,11.4
2022-09-12T04:42:00.699Z,11.1
2022-09-12T04:45:00.978Z,11.1
2022-09-12T04:48:00.699Z,11.1
2022-09-12T04:51:00.757Z,11.1
2022-09-12T04:54:00.706Z,11.1
2022-09-12T04:57:00.731Z,11.1
2022-09-12T05:00:07.269Z,11
2022-09-12T05:03:00.727Z,11
2022-09-12T05:06:00.737Z,11
2022-09-12T05:09:00.803Z,11
2022-09-12T05:12:05.600Z,11
2022-09-12T05:15:00.699Z,11
2022-09-12T05:18:00.692Z,11
2022-09-12T05:21:00.722Z,11
2022-09-12T05:24:00.828Z,11
2022-09-12T05:27:00.730Z,11
2022-09-12T05:30:00.967Z,11
2022-09-12T05:33:00.788Z,11
2022-09-12T05:36:00.776Z,11
2022-09-12T05:39:00.754Z,11
2022-09-12T05:42:00.748Z,11
2022-09-12T05:45:00.790Z,11
2022-09-12T05:48:00.750Z,11
2022-09-12T05:51:00.760Z,11
2022-09-12T05:54:00.714Z,10.9
2022-09-12T05:57:00.795Z,10.9
2022-09-12T06:00:00.851Z,10.9
2022-09-12T06:03:00.762Z,11
2022-09-12T06:06:00.751Z,11
2022-09-12T06:09:00.792Z,11
2022-09-12T06:12:00.844Z,11
2022-09-12T06:15:00.766Z,11
2022-09-12T06:18:00.763Z,11
2022-09-12T06:21:00.710Z,11
2022-09-12T06:24:00.775Z,11
2022-09-12T06:27:00.781Z,11
2022-09-12T06:30:00.814Z,11
2022-09-12T06:33:00.767Z,11.5
2022-09-12T06:36:00.827Z,11.5
2022-09-12T06:39:01.527Z,11.5
2022-09-12T06:42:00.877Z,11.5
2022-09-12T06:45:00.772Z,12
2022-09-12T06:48:00.803Z,12.1
2022-09-12T06:51:00.776Z,12.1
2022-09-12T06:54:00.787Z,12.1
2022-09-12T06:57:00.826Z,12.1
2022-09-12T07:00:00.902Z,12.1
2022-09-12T07:03:00.828Z,12.1
2022-09-12T07:06:00.770Z,12.5
2022-09-12T07:09:00.766Z,12.5
2022-09-12T07:12:00.776Z,12.5
2022-09-12T07:15:00.768Z,12.5
2022-09-12T07:18:00.744Z,12.5
2022-09-12T07:21:00.729Z,13.1
2022-09-12T07:24:00.751Z,13.1
2022-09-12T07:27:00.774Z,13.1
2022-09-12T07:30:00.759Z,13.1
2022-09-12T07:33:00.746Z,13.1
2022-09-12T07:36:00.830Z,13.6
2022-09-12T07:39:00.708Z,13.7
2022-09-12T07:42:00.776Z,13.7
2022-09-12T07:45:00.728Z,13.7
2022-09-12T07:48:00.821Z,14.1
2022-09-12T07:51:00.763Z,14.1
2022-09-12T07:54:00.802Z,14.1
2022-09-12T07:57:00.920Z,14.1
2022-09-12T08:00:00.777Z,14.1
2022-09-12T08:03:00.706Z,14.6
2022-09-12T08:06:00.742Z,14.6
2022-09-12T08:09:00.816Z,14.6
2022-09-12T08:12:00.733Z,14.6
2022-09-12T08:15:00.794Z,15.1
2022-09-12T08:18:00.762Z,15.1
2022-09-12T08:21:00.735Z,15.1
2022-09-12T08:24:00.753Z,15.1
2022-09-12T08:27:00.810Z,15.6
2022-09-12T08:30:00.766Z,15.6
2022-09-12T08:33:00.718Z,15.6
2022-09-12T08:36:00.757Z,16
2022-09-12T08:39:00.882Z,16.1
2022-09-12T08:42:00.828Z,16.1
2022-09-12T08:45:00.744Z,16.1
2022-09-12T08:48:00.770Z,16.1
2022-09-12T08:51:00.761Z,16.6
2022-09-12T08:54:00.770Z,16.6
2022-09-12T08:57:00.733Z,16.6
2022-09-12T09:00:00.817Z,16.6
2022-09-12T09:03:00.730Z,17.2
2022-09-12T09:06:00.745Z,17.2
2022-09-12T09:09:00.742Z,17.2
2022-09-12T09:12:00.756Z,17.2
2022-09-12T09:15:00.786Z,17.7
2022-09-12T09:18:00.734Z,17.7
2022-09-12T09:21:00.732Z,17.7
2022-09-12T09:24:00.711Z,17.7
2022-09-12T09:27:00.736Z,17.7
2022-09-12T09:30:00.781Z,18.2
2022-09-12T09:33:00.760Z,18.2
2022-09-12T09:36:00.713Z,18.2
2022-09-12T09:39:00.772Z,18.2
2022-09-12T09:42:00.787Z,18.2
2022-09-12T09:45:00.779Z,18.2
2022-09-12T09:48:00.941Z,18.2
2022-09-12T09:51:00.711Z,18.7
2022-09-12T09:54:00.760Z,18.7
2022-09-12T09:57:00.707Z,18.7
2022-09-12T10:00:00.856Z,18.7
2022-09-12T10:03:00.836Z,18.7
2022-09-12T10:06:00.758Z,18.7
2022-09-12T10:09:00.763Z,18.7
2022-09-12T10:12:00.784Z,18.7
2022-09-12T10:15:00.742Z,19.2
2022-09-12T10:18:00.724Z,19.2
2022-09-12T10:21:00.760Z,19.2
2022-09-12T10:24:00.766Z,19.4
2022-09-12T10:27:00.740Z,19.4
2022-09-12T10:30:00.806Z,19.4
2022-09-12T10:33:00.731Z,19.6
2022-09-12T10:36:00.810Z,19.6
2022-09-12T10:39:00.771Z,19.6
2022-09-12T10:42:00.765Z,19.6
2022-09-12T10:45:00.742Z,19.6
2022-09-12T10:48:07.627Z,19.6
2022-09-12T10:51:00.747Z,19.6
2022-09-12T10:54:00.781Z,20.1
2022-09-12T10:57:00.901Z,20.1
2022-09-12T11:00:00.806Z,20.1
2022-09-12T11:03:00.710Z,20.1
2022-09-12T11:06:00.759Z,20.1
2022-09-12T11:09:00.790Z,20.1
2022-09-12T11:12:00.785Z,20.1
2022-09-12T11:15:00.766Z,20.1
2022-09-12T11:18:00.710Z,20.5
2022-09-12T11:21:00.770Z,20.5
2022-09-12T11:24:00.767Z,20.6
2022-09-12T11:27:00.791Z,20.6
2022-09-12T11:30:00.799Z,20.6
2022-09-12T11:33:00.743Z,20.6
2022-09-12T11:36:00.727Z,20.6
2022-09-12T11:39:00.745Z,20.6
2022-09-12T11:42:00.732Z,21.1
2022-09-12T11:45:00.775Z,21.1
2022-09-12T11:48:00.768Z,21.1
2022-09-12T11:51:00.733Z,21.1
2022-09-12T11:54:00.802Z,21.1
2022-09-12T11:57:00.722Z,21.1
2022-09-12T12:00:00.852Z,21.1
2022-09-12T12:03:00.724Z,21.1
2022-09-12T12:06:00.730Z,21.1
2022-09-12T12:09:00.778Z,21.1
2022-09-12T12:12:00.727Z,21.1
2022-09-12T12:15:00.821Z,21.5
2022-09-12T12:18:00.822Z,21.5
2022-09-12T12:21:00.817Z,21.5
2022-09-12T12:24:00.738Z,21.5
2022-09-12T12:27:00.794Z,21.5
2022-09-12T12:30:00.883Z,21.5
2022-09-12T12:33:00.804Z,21.5
2022-09-12T12:36:00.735Z,21.5
2022-09-12T12:39:00.737Z,21.5
2022-09-12T12:42:00.739Z,21.5
2022-09-12T12:45:00.769Z,21.5
2022-09-12T12:48:05.038Z,21.5
2022-09-12T12:51:00.740Z,21.8
2022-09-12T12:54:00.799Z,21.8
2022-09-12T12:57:00.747Z,21.8
2022-09-12T13:00:00.867Z,21.8
2022-09-12T13:03:00.761Z,21.8
2022-09-12T13:06:00.810Z,21.8
2022-09-12T13:09:00.751Z,21.8
2022-09-12T13:12:01.505Z,22
2022-09-12T13:15:00.713Z,22
2022-09-12T13:18:00.721Z,22
2022-09-12T13:21:00.802Z,22.1
2022-09-12T13:24:00.757Z,22.1
2022-09-12T13:27:00.731Z,22.1
2022-09-12T13:30:00.839Z,22.1
2022-09-12T13:33:00.785Z,22.1
2022-09-12T13:36:00.747Z,22.1
2022-09-12T13:39:00.797Z,22.1
2022-09-12T13:42:00.786Z,22.1
2022-09-12T13:45:00.709Z,22.1
2022-09-12T13:48:00.779Z,22.1
2022-09-12T13:51:00.723Z,22.1
2022-09-12T13:54:00.781Z,22.1
2022-09-12T13:57:00.844Z,22.4
2022-09-12T14:00:00.820Z,22.4
2022-09-12T14:03:00.788Z,22.4
2022-09-12T14:06:00.735Z,22.4
2022-09-12T14:09:00.821Z,22.4
2022-09-12T14:12:00.871Z,22.5
2022-09-12T14:15:00.791Z,22.5
2022-09-12T14:18:00.806Z,22.5
2022-09-12T14:21:00.728Z,22.5
2022-09-12T14:24:00.768Z,22.5
2022-09-12T14:27:00.776Z,22.5
2022-09-12T14:30:00.857Z,22.4
2022-09-12T14:33:00.782Z,22.4
2022-09-12T14:36:00.793Z,22.4
2022-09-12T14:39:00.780Z,22.4
2022-09-12T14:42:00.825Z,22.4
2022-09-12T14:45:00.846Z,22.4
2022-09-12T14:48:00.882Z,22.4
2022-09-12T14:51:00.742Z,22.4
2022-09-12T14:54:00.750Z,22.4
2022-09-12T14:57:00.829Z,22.4
2022-09-12T15:00:00.832Z,22.5
2022-09-12T15:03:00.762Z,22.5
2022-09-12T15:06:00.838Z,22.5
2022-09-12T15:09:00.808Z,22.5
2022-09-12T15:12:00.742Z,22.5
2022-09-12T15:15:00.841Z,22.5
2022-09-12T15:18:06.529Z,22.5
2022-09-12T15:21:00.796Z,22.5
2022-09-12T15:24:00.826Z,22.5
2022-09-12T15:27:00.771Z,22.5
2022-09-12T15:30:00.962Z,22.5
2022-09-12T15:33:00.748Z,22.5
2022-09-12T15:36:00.763Z,22.5
2022-09-12T15:39:00.839Z,22.5
2022-09-12T15:42:00.736Z,22.5
2022-09-12T15:45:03.037Z,22.5
2022-09-12T15:48:00.788Z,22.5
2022-09-12T15:51:00.766Z,22.5
2022-09-12T15:54:00.799Z,22.2
2022-09-12T15:57:00.758Z,22.2
2022-09-12T16:00:00.816Z,22.2
2022-09-12T16:03:00.914Z,22.2
2022-09-12T16:06:00.766Z,22.2
2022-09-12T16:09:00.847Z,22.2
2022-09-12T16:12:00.781Z,22.2
2022-09-12T16:15:00.707Z,22.2
2022-09-12T16:18:00.801Z,22.2
2022-09-12T16:21:00.737Z,22.2
2022-09-12T16:24:00.839Z,22.2
2022-09-12T16:27:01.610Z,22
2022-09-12T16:30:00.825Z,22
2022-09-12T16:33:00.778Z,22
2022-09-12T16:36:00.753Z,22
2022-09-12T16:39:00.740Z,22
2022-09-12T16:42:00.751Z,22
2022-09-12T16:45:00.738Z,21.8
2022-09-12T16:48:00.776Z,21.8
2022-09-12T16:51:00.729Z,21.8
2022-09-12T16:54:00.762Z,21.8
2022-09-12T16:57:00.765Z,21.7
2022-09-12T17:00:00.829Z,21.7
2022-09-12T17:03:00.807Z,21.7
2022-09-12T17:06:00.763Z,21.7
2022-09-12T17:09:00.768Z,21.7
2022-09-12T17:12:00.778Z,21.7
2022-09-12T17:15:00.802Z,21.7
2022-09-12T17:18:00.731Z,21.7
2022-09-12T17:21:00.726Z,21.7
2022-09-12T17:24:00.739Z,21.7
2022-09-12T17:27:00.705Z,21.7
2022-09-12T17:30:00.946Z,21.2
2022-09-12T17:33:00.719Z,21.2
2022-09-12T17:36:00.911Z,21.2
2022-09-12T17:39:00.695Z,21.2
2022-09-12T17:42:00.771Z,20.9
2022-09-12T17:45:00.772Z,20.9
2022-09-12T17:48:00.744Z,20.9
2022-09-12T17:51:00.721Z,20.9
2022-09-12T17:54:00.757Z,20.9
2022-09-12T17:57:00.713Z,20.6
2022-09-12T18:00:00.769Z,20.6
2022-09-12T18:03:00.765Z,20.6
2022-09-12T18:06:00.691Z,20.6
2022-09-12T18:09:00.753Z,20.6
2022-09-12T18:12:00.687Z,20.6
2022-09-12T18:15:00.705Z,20.6
2022-09-12T18:18:00.698Z,20.6
2022-09-12T18:21:00.682Z,20.6
2022-09-12T18:24:00.691Z,20.1
2022-09-12T18:27:00.718Z,20.1
2022-09-12T18:30:21.373Z,20.1
2022-09-12T18:33:00.720Z,20.1
2022-09-12T18:36:00.712Z,20.1
2022-09-12T18:39:00.734Z,19.6
2022-09-12T18:42:00.688Z,19.6
2022-09-12T18:45:00.740Z,19.6
2022-09-12T18:48:00.725Z,19.6
2022-09-12T18:51:00.713Z,19.6
2022-09-12T18:54:00.693Z,19.6
2022-09-12T18:57:00.696Z,19.6
2022-09-12T19:00:00.734Z,19.1
2022-09-12T19:03:00.670Z,19.1
2022-09-12T19:06:00.717Z,19.1
2022-09-12T19:09:07.732Z,19.1
2022-09-12T19:12:00.730Z,19.1
2022-09-12T19:15:00.731Z,19.1
2022-09-12T19:18:00.706Z,19.1
2022-09-12T19:21:00.713Z,18.6
2022-09-12T19:24:00.671Z,18.6
2022-09-12T19:27:00.726Z,18.6
2022-09-12T19:30:00.697Z,18.6
2022-09-12T19:33:00.712Z,18.3
2022-09-12T19:36:00.728Z,18.3
2022-09-12T19:39:00.655Z,18.3
2022-09-12T19:42:00.726Z,18.1
2022-09-12T19:45:00.729Z,18.1
2022-09-12T19:48:00.695Z,18.1
2022-09-12T19:51:00.699Z,18.1
2022-09-12T19:54:00.717Z,18.1
2022-09-12T19:57:00.745Z,18.1
2022-09-12T20:00:00.759Z,17.6
2022-09-12T20:03:00.736Z,17.6
2022-09-12T20:06:00.706Z,17.6
2022-09-12T20:09:00.683Z,17.6
2022-09-12T20:12:00.668Z,17.6
2022-09-12T20:15:00.732Z,17.1
2022-09-12T20:18:00.684Z,17.1
2022-09-12T20:21:00.964Z,17.1
2022-09-12T20:24:00.682Z,17.1
2022-09-12T20:27:00.670Z,16.9
2022-09-12T20:30:00.725Z,16.9
2022-09-12T20:33:00.692Z,16.9
2022-09-12T20:36:00.709Z,16.9
2022-09-12T20:39:00.702Z,16.9
2022-09-12T20:42:00.652Z,16.9
2022-09-12T20:45:00.792Z,16.9
2022-09-12T20:48:00.718Z,16.6
2022-09-12T20:51:00.701Z,16.6
2022-09-12T20:54:00.665Z,16.6
2022-09-12T20:57:00.680Z,16.6
2022-09-12T21:00:00.761Z,16.6
2022-09-12T21:03:00.673Z,16.6
2022-09-12T21:06:00.686Z,16.6
2022-09-12T21:09:00.955Z,16.6
2022-09-12T21:12:00.676Z,16.6
2022-09-12T21:15:00.663Z,16.2
2022-09-12T21:18:00.669Z,16.2
2022-09-12T21:21:00.721Z,16.2
2022-09-12T21:24:00.656Z,16.2
2022-09-12T21:27:04.748Z,16
2022-09-12T21:30:00.691Z,16
2022-09-12T21:33:00.682Z,16
2022-09-12T21:36:00.683Z,16
2022-09-12T21:39:00.765Z,16
2022-09-12T21:42:00.838Z,16
2022-09-12T21:45:00.700Z,16
2022-09-12T21:48:00.701Z,15.7
2022-09-12T21:51:00.664Z,15.7
2022-09-12T21:54:00.715Z,15.7
2022-09-12T21:57:00.676Z,15.7
2022-09-12T22:00:00.804Z,15.7
2022-09-12T22:03:00.672Z,15.7
2022-09-12T22:06:00.670Z,15.7
2022-09-12T22:09:00.659Z,15.7
2022-09-12T22:12:00.692Z,15.5
2022-09-12T22:15:38.679Z,15.5
2022-09-12T22:18:00.708Z,15.4
2022-09-12T22:21:00.725Z,15.4
2022-09-12T22:24:00.701Z,15.4
2022-09-12T22:27:00.671Z,15.4
2022-09-12T22:30:00.724Z,15.4
2022-09-12T22:33:00.672Z,15.4
2022-09-12T22:36:00.726Z,15.4
2022-09-12T22:39:00.731Z,15.4
2022-09-12T22:42:00.734Z,15.4
2022-09-12T22:45:00.713Z,15.4
2022-09-12T22:48:02.626Z,15.4
2022-09-12T22:51:00.710Z,15.4
2022-09-12T22:54:00.719Z,15.4
2022-09-12T22:57:00.679Z,15.4
2022-09-12T23:00:00.752Z,15.4
2022-09-12T23:03:00.736Z,15.4
2022-09-12T23:06:00.720Z,15.4
2022-09-12T23:09:00.724Z,15.4
2022-09-12T23:12:00.756Z,15.1
2022-09-12T23:15:00.682Z,15
2022-09-12T23:18:00.721Z,15
2022-09-12T23:21:00.715Z,15
2022-09-12T23:24:00.678Z,15
2022-09-12T23:27:00.738Z,15
2022-09-12T23:30:00.708Z,15
2022-09-12T23:33:00.696Z,15
2022-09-12T23:36:00.719Z,15
2022-09-12T23:39:00.738Z,15
2022-09-12T23:42:00.746Z,15
2022-09-12T23:45:00.727Z,15
2022-09-12T23:48:00.768Z,15
2022-09-12T23:51:00.696Z,15
2022-09-12T23:54:00.786Z,15
2022-09-12T23:57:00.678Z,15
